首页
METAR-TAF:

METAR-TAF

机场 :

錫爾特, 土耳其

纬度: 37-58-41N, 经度: 41-50-21E, 海拔: 610米

当前天气观测

该预报发布于53分钟前的08:50 UTC
风速4节,风向多变
温度 31°C
湿度 19%
气压 1012 hPa
能见度10公里或以上
1500米以下无云,无积雨云

METAR: LTCL 010850Z VRB04KT CAVOK 31/05 Q1012

时间: 12:43 (09:43 UTC)

预报

该预报发布于2小时和3分钟前的07:40 UTC
预报有效从01日的 09点(UTC)到 01日的 18点(UTC)
风速2节,风向多变
能见度10公里或以上
1500米以下无云,无积雨云
成为
从 01日的 09点(UTC)到 01日的 13点(UTC)
风速12节,风向
少量云层高于4000英尺
散云层高于10000英尺

TAF: LTCL 010740Z 0109/0118 VRB02KT CAVOK BECMG 0109/0113 18012KT FEW040 SCT100

超过4000个机场的气象观测和天气预报(METAR&TAF报告)。

可查询的气象台以黄色和红色小点在地图上表示。

将鼠标移到小点上方,可查看气象台名称。

然后点击查看天气观测和预报。

如需切换地图:点击带黑十字的绿色按钮放大地图;点击带横线的绿色按钮缩小地图;或者点击绿色箭头查看邻近地区的地图。


METAR-TAF: